Time;durP1;ratioP1;P1;durP2;ratioP2;P2;SDS_P1;SDS_P2;PMS_P1;PMS_P2;Temp;Humidity;BMP_temperature;BMP_pressure;BME280_temperature;BME280_humidity;BME280_pressure;Samples;Min_cycle;Max_cycle;Signal;HPM_P1;HPM_P2
2023/10/27 00:01:03;;;;;;;27.92;16.17;;;10.70;99.90;;;;;;5051697;28;20056;-62
2023/10/27 00:03:28;;;;;;;24.55;15.45;;;10.70;99.90;;;;;;5050183;28;20064;-62
2023/10/27 00:05:54;;;;;;;31.42;18.30;;;10.70;99.90;;;;;;5051846;28;20061;-62
2023/10/27 00:08:20;;;;;;;31.40;18.05;;;10.70;99.90;;;;;;5051392;28;20025;-62
2023/10/27 00:10:45;;;;;;;32.30;18.17;;;10.70;99.90;;;;;;5051513;28;20494;-62
2023/10/27 00:13:11;;;;;;;29.25;16.77;;;10.70;99.90;;;;;;5051511;28;20032;-62
2023/10/27 00:15:36;;;;;;;28.67;16.30;;;10.70;99.90;;;;;;5051264;28;20029;-62
2023/10/27 00:18:02;;;;;;;30.95;18.02;;;10.70;99.90;;;;;;5051069;28;20495;-62
2023/10/27 00:20:27;;;;;;;27.75;15.85;;;10.70;99.90;;;;;;5051500;28;20025;-62
2023/10/27 00:22:53;;;;;;;26.85;16.23;;;10.70;99.90;;;;;;5050234;28;20044;-62
2023/10/27 00:25:18;;;;;;;27.00;16.85;;;10.70;99.90;;;;;;5050076;28;20028;-62
2023/10/27 00:27:44;;;;;;;29.48;16.92;;;10.70;99.90;;;;;;5050762;28;20021;-61
2023/10/27 00:30:10;;;;;;;25.02;14.85;;;10.70;99.90;;;;;;5050007;28;20032;-61
2023/10/27 00:32:36;;;;;;;28.00;16.70;;;10.70;99.90;;;;;;5047139;28;20018;-60
2023/10/27 00:35:05;;;;;;;26.23;15.63;;;10.70;99.90;;;;;;5059870;28;20120;-61
2023/10/27 00:37:35;;;;;;;27.65;15.35;;;10.70;99.90;;;;;;5055623;28;20025;-61
2023/10/27 00:40:01;;;;;;;28.33;15.85;;;10.70;99.90;;;;;;5049448;28;20040;-61
2023/10/27 00:42:27;;;;;;;30.25;17.20;;;10.70;99.90;;;;;;5051078;28;20417;-61
2023/10/27 00:44:52;;;;;;;28.45;16.58;;;10.70;99.90;;;;;;5049708;28;20043;-61
2023/10/27 00:47:18;;;;;;;27.38;15.70;;;10.70;99.90;;;;;;5042830;28;20086;-61
2023/10/27 00:49:44;;;;;;;33.42;17.10;;;10.70;99.90;;;;;;5046216;28;20049;-61
2023/10/27 00:52:14;;;;;;;32.65;17.60;;;10.70;99.90;;;;;;5047427;28;20063;-62
2023/10/27 00:54:43;;;;;;;26.55;15.50;;;10.70;99.90;;;;;;5049124;28;20037;-62
2023/10/27 00:57:09;;;;;;;30.23;17.45;;;10.70;99.90;;;;;;5050394;28;20029;-62
2023/10/27 00:59:36;;;;;;;34.00;18.73;;;10.70;99.90;;;;;;5049300;28;20510;-62
2023/10/27 01:02:02;;;;;;;26.23;15.02;;;10.70;99.90;;;;;;5050596;28;20025;-62
2023/10/27 01:04:28;;;;;;;29.02;16.02;;;10.70;99.90;;;;;;5049200;28;20033;-62
2023/10/27 01:06:55;;;;;;;25.67;14.65;;;10.70;99.90;;;;;;5050293;28;20075;-62
2023/10/27 01:09:21;;;;;;;27.63;14.93;;;10.70;99.90;;;;;;5050502;28;20025;-62
2023/10/27 01:11:48;;;;;;;30.33;16.52;;;10.70;99.90;;;;;;5050318;28;20021;-62
2023/10/27 01:14:13;;;;;;;23.30;13.77;;;10.70;99.90;;;;;;5050333;28;20025;-62
2023/10/27 01:16:39;;;;;;;35.55;18.35;;;10.70;99.90;;;;;;5050044;28;20100;-62
2023/10/27 01:19:04;;;;;;;42.13;19.30;;;10.70;99.90;;;;;;5050592;28;20070;-62
2023/10/27 01:21:30;;;;;;;33.58;18.55;;;10.70;99.90;;;;;;5050412;28;20466;-62
2023/10/27 01:23:55;;;;;;;28.80;16.40;;;10.70;99.90;;;;;;5049009;28;20036;-62
2023/10/27 01:26:21;;;;;;;34.05;17.77;;;10.70;99.90;;;;;;5050325;28;20021;-62
2023/10/27 01:28:46;;;;;;;32.78;16.83;;;10.70;99.90;;;;;;5050518;28;20104;-62
2023/10/27 01:31:12;;;;;;;35.38;18.40;;;10.70;99.90;;;;;;5050346;28;20025;-62
2023/10/27 01:33:38;;;;;;;33.83;17.95;;;10.70;99.90;;;;;;5050103;28;20128;-62
2023/10/27 01:36:04;;;;;;;35.05;18.75;;;10.70;99.90;;;;;;5050103;28;20013;-62
2023/10/27 01:38:30;;;;;;;38.70;20.48;;;10.70;99.90;;;;;;5049776;28;20052;-62
2023/10/27 01:40:56;;;;;;;36.95;18.55;;;10.60;99.90;;;;;;5050158;28;20071;-62
2023/10/27 01:43:22;;;;;;;33.83;18.85;;;10.70;99.90;;;;;;5048518;28;20013;-62
2023/10/27 01:45:48;;;;;;;43.25;20.70;;;10.70;99.90;;;;;;5048356;28;20031;-62
2023/10/27 01:48:13;;;;;;;45.00;22.67;;;10.70;99.90;;;;;;5049950;28;20659;-62
2023/10/27 01:50:39;;;;;;;38.65;20.10;;;10.70;99.90;;;;;;5050028;28;20067;-62
2023/10/27 01:53:04;;;;;;;43.80;20.80;;;10.70;99.90;;;;;;5049849;28;20422;-62
2023/10/27 01:55:30;;;;;;;41.38;20.73;;;10.70;99.90;;;;;;5049566;28;20037;-62
2023/10/27 01:57:56;;;;;;;42.70;22.73;;;10.70;99.90;;;;;;5049573;28;20040;-62
2023/10/27 02:00:21;;;;;;;41.33;19.75;;;10.70;99.90;;;;;;5049756;28;20029;-62
2023/10/27 02:02:46;;;;;;;37.33;18.55;;;10.70;99.90;;;;;;5048299;28;20481;-62
2023/10/27 02:05:13;;;;;;;47.58;22.85;;;10.70;99.90;;;;;;5048168;28;20048;-62
2023/10/27 02:07:39;;;;;;;36.92;19.48;;;10.70;99.90;;;;;;5049771;28;20107;-62
2023/10/27 02:10:05;;;;;;;39.63;19.48;;;10.70;99.90;;;;;;5049893;28;20537;-62
2023/10/27 02:12:31;;;;;;;34.33;19.05;;;10.70;99.90;;;;;;5048242;28;20021;-62
2023/10/27 02:14:56;;;;;;;37.17;18.65;;;10.60;99.90;;;;;;5048144;28;20390;-62
2023/10/27 02:17:23;;;;;;;38.28;20.88;;;10.60;99.90;;;;;;5047747;28;20021;-62
2023/10/27 02:19:49;;;;;;;38.08;19.20;;;10.60;99.90;;;;;;5049698;28;20432;-62
2023/10/27 02:22:15;;;;;;;43.10;20.52;;;10.70;99.90;;;;;;5048043;28;20052;-62
2023/10/27 02:24:40;;;;;;;39.78;19.50;;;10.70;99.90;;;;;;5049140;28;20059;-62
2023/10/27 02:27:06;;;;;;;36.88;18.08;;;10.70;99.90;;;;;;5047666;28;20029;-62
2023/10/27 02:29:32;;;;;;;40.00;20.00;;;10.70;99.90;;;;;;5049143;28;20542;-62
2023/10/27 02:31:57;;;;;;;40.65;20.13;;;10.70;99.90;;;;;;5049088;28;20075;-62
2023/10/27 02:34:24;;;;;;;44.50;23.48;;;10.70;99.90;;;;;;5048999;28;20036;-62
2023/10/27 02:36:49;;;;;;;45.05;21.45;;;10.70;99.90;;;;;;5048615;28;20044;-62
2023/10/27 02:39:15;;;;;;;47.85;22.80;;;10.70;99.90;;;;;;5049078;28;20036;-63
2023/10/27 02:41:40;;;;;;;46.00;23.10;;;10.70;99.90;;;;;;5049031;28;20021;-63
2023/10/27 02:44:06;;;;;;;44.08;21.33;;;10.70;99.90;;;;;;5048884;28;20029;-63
2023/10/27 02:46:32;;;;;;;41.28;20.98;;;10.60;99.90;;;;;;5048910;28;20025;-63
2023/10/27 02:48:58;;;;;;;45.33;22.98;;;10.70;99.90;;;;;;5047566;28;20078;-63
2023/10/27 02:51:24;;;;;;;43.50;21.30;;;10.70;99.90;;;;;;5048748;28;20033;-63
2023/10/27 02:53:50;;;;;;;51.00;25.20;;;10.70;99.90;;;;;;5049017;28;20107;-63
2023/10/27 02:56:16;;;;;;;41.20;21.08;;;10.60;99.90;;;;;;5050191;28;20097;-63
2023/10/27 02:58:42;;;;;;;48.85;22.08;;;10.70;99.90;;;;;;5051351;28;20070;-63
2023/10/27 03:01:09;;;;;;;48.83;23.08;;;10.70;99.90;;;;;;5052756;28;20486;-63
2023/10/27 03:03:35;;;;;;;41.25;20.70;;;10.60;99.90;;;;;;5051480;28;20102;-63
2023/10/27 03:06:01;;;;;;;44.55;23.00;;;10.70;99.90;;;;;;5053218;28;20052;-63
2023/10/27 03:08:26;;;;;;;36.22;18.80;;;10.60;99.90;;;;;;5052843;28;20037;-63
2023/10/27 03:10:52;;;;;;;47.47;21.75;;;10.60;99.90;;;;;;5052934;28;20029;-63
2023/10/27 03:13:18;;;;;;;44.08;22.17;;;10.70;99.90;;;;;;5052591;28;20413;-63
2023/10/27 03:15:43;;;;;;;39.00;20.27;;;10.70;99.90;;;;;;5052578;28;20421;-63
2023/10/27 03:18:09;;;;;;;43.88;20.92;;;10.60;99.90;;;;;;5052531;28;20032;-63
2023/10/27 03:20:34;;;;;;;43.00;20.92;;;10.70;99.90;;;;;;5052438;28;20033;-63
2023/10/27 03:23:00;;;;;;;41.90;21.05;;;10.70;99.90;;;;;;5052590;28;20508;-63
2023/10/27 03:25:25;;;;;;;40.47;21.02;;;10.70;99.90;;;;;;5052233;28;20033;-63
2023/10/27 03:27:51;;;;;;;37.42;18.95;;;10.70;99.90;;;;;;5052388;28;20345;-63
2023/10/27 03:30:16;;;;;;;36.92;19.70;;;10.70;99.90;;;;;;5052504;28;20385;-63
2023/10/27 03:32:42;;;;;;;42.63;20.50;;;10.70;99.90;;;;;;5052455;28;20029;-63
2023/10/27 03:35:07;;;;;;;40.80;20.90;;;10.70;99.90;;;;;;5052119;28;20065;-64
2023/10/27 03:37:33;;;;;;;39.30;19.98;;;10.70;99.90;;;;;;5051891;28;20033;-63
2023/10/27 03:39:59;;;;;;;42.97;21.13;;;10.70;99.90;;;;;;5050705;28;20132;-63
2023/10/27 03:42:25;;;;;;;44.50;20.80;;;10.70;99.90;;;;;;5052327;28;20071;-64
2023/10/27 03:44:50;;;;;;;48.67;22.40;;;10.70;99.90;;;;;;5052368;28;20226;-64
2023/10/27 03:47:16;;;;;;;47.50;20.90;;;10.70;99.90;;;;;;5051780;28;20025;-63
2023/10/27 03:49:41;;;;;;;59.03;25.90;;;10.70;99.90;;;;;;5051853;28;20371;-63
2023/10/27 03:52:09;;;;;;;47.30;21.92;;;10.70;99.90;;;;;;5051969;28;20463;-63
2023/10/27 03:54:35;;;;;;;43.67;20.55;;;10.70;99.90;;;;;;5052255;28;20017;-62
2023/10/27 03:57:01;;;;;;;49.03;21.50;;;10.70;99.90;;;;;;5051907;28;20074;-62
2023/10/27 03:59:27;;;;;;;40.33;20.35;;;10.70;99.90;;;;;;5050264;28;20028;-62
2023/10/27 04:01:53;;;;;;;50.55;22.65;;;10.70;99.90;;;;;;5048006;28;20028;-63
2023/10/27 04:04:19;;;;;;;46.65;23.13;;;10.70;99.90;;;;;;5051515;28;20139;-63
2023/10/27 04:06:45;;;;;;;53.20;23.42;;;10.70;99.90;;;;;;5049805;28;20379;-63
2023/10/27 04:09:11;;;;;;;51.40;23.77;;;10.70;99.90;;;;;;5052002;28;20013;-64
2023/10/27 04:11:36;;;;;;;48.75;23.15;;;10.70;99.90;;;;;;5051707;28;20032;-63
2023/10/27 04:14:04;;;;;;;47.92;22.85;;;10.70;99.90;;;;;;5051422;28;20398;-64
2023/10/27 04:16:30;;;;;;;53.67;24.80;;;10.70;99.90;;;;;;5051743;28;20094;-64
2023/10/27 04:18:55;;;;;;;49.65;22.77;;;10.60;99.90;;;;;;5051254;28;20564;-63
2023/10/27 04:21:21;;;;;;;53.60;22.88;;;10.60;99.90;;;;;;5051875;28;20021;-62
2023/10/27 04:23:47;;;;;;;51.88;23.02;;;10.70;99.90;;;;;;5050090;28;20478;-63
2023/10/27 04:26:13;;;;;;;53.70;22.73;;;10.70;99.90;;;;;;5051392;28;20043;-63
2023/10/27 04:28:39;;;;;;;48.10;21.02;;;10.70;99.90;;;;;;5051290;28;20035;-63
2023/10/27 04:31:05;;;;;;;54.22;22.73;;;10.60;99.90;;;;;;5051386;28;20096;-63
2023/10/27 04:33:31;;;;;;;52.33;24.42;;;10.60;99.90;;;;;;5049752;28;20026;-63
2023/10/27 04:35:56;;;;;;;52.85;23.77;;;10.60;99.90;;;;;;5047496;28;20032;-63
2023/10/27 04:38:22;;;;;;;55.05;24.98;;;10.60;99.90;;;;;;5038581;28;20574;-63
2023/10/27 04:40:51;;;;;;;59.10;24.90;;;10.60;99.90;;;;;;5039788;28;20037;-63
2023/10/27 04:43:17;;;;;;;58.22;23.92;;;10.60;99.90;;;;;;5040393;28;20014;-63
2023/10/27 04:45:42;;;;;;;58.90;24.77;;;10.70;99.90;;;;;;5040371;28;20603;-63
2023/10/27 04:48:08;;;;;;;54.72;22.73;;;10.60;99.90;;;;;;5038997;28;20026;-63
2023/10/27 04:50:35;;;;;;;41.30;20.38;;;10.70;99.90;;;;;;5040673;28;20032;-63
2023/10/27 04:53:00;;;;;;;49.08;21.38;;;10.70;99.90;;;;;;5040040;28;20021;-63
2023/10/27 04:55:26;;;;;;;42.00;19.90;;;10.60;99.90;;;;;;5040987;28;20461;-63
2023/10/27 04:57:51;;;;;;;44.85;20.45;;;10.60;99.90;;;;;;5044910;28;20028;-63
2023/10/27 05:00:17;;;;;;;49.38;21.35;;;10.60;99.90;;;;;;5050725;28;20021;-63
2023/10/27 05:02:43;;;;;;;48.85;21.05;;;10.60;99.90;;;;;;5049062;28;20036;-63
2023/10/27 05:05:09;;;;;;;40.08;19.17;;;10.60;99.90;;;;;;5049426;28;20474;-63
2023/10/27 05:07:36;;;;;;;43.20;19.25;;;10.60;99.90;;;;;;5048923;28;20162;-63
2023/10/27 05:10:02;;;;;;;42.03;19.65;;;10.60;99.90;;;;;;5049110;28;20017;-63
2023/10/27 05:12:28;;;;;;;45.38;20.48;;;10.60;99.90;;;;;;5050692;28;20033;-63
2023/10/27 05:14:54;;;;;;;46.42;20.73;;;10.60;99.90;;;;;;5050495;28;20402;-63
2023/10/27 05:17:20;;;;;;;40.08;19.70;;;10.60;99.90;;;;;;5050101;28;20431;-63
2023/10/27 05:19:45;;;;;;;46.90;20.60;;;10.60;99.90;;;;;;5049682;28;20147;-63
2023/10/27 05:22:12;;;;;;;46.90;22.20;;;10.60;99.90;;;;;;5050642;28;20098;-63
2023/10/27 05:24:38;;;;;;;57.60;21.08;;;10.50;99.90;;;;;;5050378;28;20389;-62
2023/10/27 05:27:04;;;;;;;43.03;19.67;;;10.50;99.90;;;;;;5048791;28;20108;-62
2023/10/27 05:29:30;;;;;;;39.50;18.85;;;10.50;99.90;;;;;;5050202;28;20037;-63
2023/10/27 05:31:55;;;;;;;44.42;18.73;;;10.50;99.90;;;;;;5049946;28;20147;-62
2023/10/27 05:34:21;;;;;;;39.83;18.42;;;10.50;99.90;;;;;;5048590;28;20029;-63
2023/10/27 05:36:46;;;;;;;41.53;18.88;;;10.50;99.90;;;;;;5049750;28;20712;-63
2023/10/27 05:39:16;;;;;;;40.28;18.45;;;10.50;99.90;;;;;;5048536;28;20494;-63
2023/10/27 05:41:46;;;;;;;42.20;17.83;;;10.40;99.90;;;;;;5050107;28;20109;-63
2023/10/27 05:44:13;;;;;;;34.97;17.52;;;10.50;99.90;;;;;;5048628;28;20031;-63
2023/10/27 05:46:38;;;;;;;47.28;18.48;;;10.50;99.90;;;;;;5049334;28;20056;-63
2023/10/27 05:49:04;;;;;;;36.05;17.75;;;10.50;99.90;;;;;;5049835;28;20576;-62
2023/10/27 05:51:30;;;;;;;32.55;15.80;;;10.40;99.90;;;;;;5049942;28;20497;-62
2023/10/27 05:53:56;;;;;;;29.88;14.55;;;10.40;99.90;;;;;;5049596;28;20021;-62
2023/10/27 05:56:21;;;;;;;29.58;16.23;;;10.40;99.90;;;;;;5049563;28;20036;-62
2023/10/27 05:58:47;;;;;;;29.05;15.07;;;10.40;99.90;;;;;;5049607;28;20043;-63
2023/10/27 06:01:12;;;;;;;27.95;14.43;;;10.40;99.90;;;;;;5049636;28;20017;-62
2023/10/27 06:03:38;;;;;;;27.45;14.52;;;10.40;99.90;;;;;;5049572;28;20100;-63
2023/10/27 06:06:04;;;;;;;27.00;14.32;;;10.40;99.90;;;;;;5047827;28;20052;-62
2023/10/27 06:08:29;;;;;;;31.25;13.25;;;10.40;99.90;;;;;;5049213;28;20060;-63
2023/10/27 06:10:55;;;;;;;32.60;15.90;;;10.40;99.90;;;;;;5049507;28;20037;-62
2023/10/27 06:13:20;;;;;;;31.58;14.80;;;10.40;99.90;;;;;;5049228;28;20021;-62
2023/10/27 06:15:46;;;;;;;29.98;14.82;;;10.40;99.90;;;;;;5047896;28;20032;-62
2023/10/27 06:18:12;;;;;;;25.10;14.27;;;10.40;99.90;;;;;;5049320;28;20377;-62
2023/10/27 06:20:38;;;;;;;29.83;16.50;;;10.40;99.90;;;;;;5049195;28;20036;-62
2023/10/27 06:23:04;;;;;;;31.20;15.63;;;10.40;99.90;;;;;;5049120;28;20032;-62
2023/10/27 06:25:29;;;;;;;27.33;14.57;;;10.40;99.90;;;;;;5049044;28;20032;-62
2023/10/27 06:27:55;;;;;;;27.92;15.20;;;10.40;99.90;;;;;;5048810;28;20029;-62
2023/10/27 06:30:21;;;;;;;29.95;15.43;;;10.40;99.90;;;;;;5049099;28;20028;-63
2023/10/27 06:32:49;;;;;;;33.38;16.52;;;10.40;99.90;;;;;;5047709;28;20021;-63
2023/10/27 06:35:15;;;;;;;25.88;14.10;;;10.40;99.90;;;;;;5049078;28;20108;-63
2023/10/27 06:37:41;;;;;;;37.08;17.20;;;10.40;99.90;;;;;;5048682;28;20423;-63
2023/10/27 06:40:07;;;;;;;32.45;15.77;;;10.40;99.90;;;;;;5047728;28;20041;-63
2023/10/27 06:42:33;;;;;;;28.17;15.18;;;10.40;99.90;;;;;;5049098;28;20025;-63
2023/10/27 06:45:00;;;;;;;31.42;16.60;;;10.40;99.90;;;;;;5048749;28;20382;-63
2023/10/27 06:47:25;;;;;;;32.42;16.45;;;10.40;99.90;;;;;;5048904;28;20447;-63
2023/10/27 06:49:51;;;;;;;29.83;16.63;;;10.40;99.90;;;;;;5047589;28;20045;-63
2023/10/27 06:52:16;;;;;;;32.42;16.27;;;10.40;99.90;;;;;;5047657;28;20024;-62
2023/10/27 06:54:42;;;;;;;28.48;15.48;;;10.40;99.90;;;;;;5048786;28;20064;-63
2023/10/27 06:57:07;;;;;;;30.27;16.48;;;10.40;99.90;;;;;;5049194;28;20029;-63
2023/10/27 06:59:33;;;;;;;32.45;15.90;;;10.40;99.90;;;;;;5049262;28;20033;-63
2023/10/27 07:01:58;;;;;;;29.73;15.75;;;10.50;99.90;;;;;;5049052;28;20029;-63
2023/10/27 07:04:24;;;;;;;29.77;15.07;;;10.50;99.90;;;;;;5047779;28;20021;-63
2023/10/27 07:06:50;;;;;;;24.30;13.00;;;10.50;99.90;;;;;;5048689;28;20100;-63
2023/10/27 07:09:15;;;;;;;29.95;14.90;;;10.50;99.90;;;;;;5048760;28;20389;-63
2023/10/27 07:11:41;;;;;;;31.25;16.08;;;10.50;99.90;;;;;;5047401;28;20013;-63
2023/10/27 07:14:07;;;;;;;25.35;14.07;;;10.50;99.90;;;;;;5048489;28;20049;-63
2023/10/27 07:16:32;;;;;;;32.40;16.77;;;10.50;99.90;;;;;;5048687;28;20397;-63
2023/10/27 07:18:58;;;;;;;27.52;14.43;;;10.50;99.90;;;;;;5048715;28;20068;-63
2023/10/27 07:21:23;;;;;;;26.83;14.80;;;10.50;99.90;;;;;;5048307;28;20036;-62
2023/10/27 07:23:49;;;;;;;25.33;13.90;;;10.50;99.90;;;;;;5047012;28;20043;-63
2023/10/27 07:26:15;;;;;;;33.25;15.93;;;10.50;99.90;;;;;;5048497;28;20024;-63
2023/10/27 07:28:44;;;;;;;29.02;15.07;;;10.50;99.90;;;;;;5048565;28;20029;-64
2023/10/27 07:31:09;;;;;;;24.55;14.10;;;10.50;99.90;;;;;;5048567;28;20101;-63
2023/10/27 07:33:38;;;;;;;26.10;13.25;;;10.50;99.90;;;;;;5048437;28;20382;-62
2023/10/27 07:36:07;;;;;;;25.67;13.82;;;10.50;99.90;;;;;;5047190;28;20178;-62
2023/10/27 07:38:34;;;;;;;26.67;14.05;;;10.60;99.90;;;;;;5048283;28;20033;-62
2023/10/27 07:41:00;;;;;;;23.98;12.52;;;10.60;99.90;;;;;;5041577;28;20037;-62
2023/10/27 07:43:26;;;;;;;22.63;12.57;;;10.60;99.90;;;;;;5042079;28;20032;-63
2023/10/27 07:45:54;;;;;;;24.08;11.70;;;10.60;99.90;;;;;;5041339;28;20064;-62
2023/10/27 07:48:20;;;;;;;22.05;12.00;;;10.70;99.90;;;;;;5041979;28;20108;-63
2023/10/27 07:50:46;;;;;;;28.70;14.32;;;10.70;99.90;;;;;;5046219;28;20032;-63
2023/10/27 07:53:11;;;;;;;21.10;12.57;;;10.70;99.90;;;;;;5046449;28;20475;-62
2023/10/27 07:55:37;;;;;;;22.38;12.48;;;10.70;99.90;;;;;;5051880;28;20025;-63
2023/10/27 07:58:04;;;;;;;19.60;10.95;;;10.80;99.90;;;;;;5050122;28;20477;-62
2023/10/27 08:00:31;;;;;;;21.98;11.40;;;10.80;99.90;;;;;;5044343;28;20017;-63
2023/10/27 08:02:57;;;;;;;23.25;13.35;;;10.80;99.90;;;;;;5045045;28;20039;-63
2023/10/27 08:05:23;;;;;;;28.30;13.48;;;10.80;99.90;;;;;;5051797;28;20098;-62
2023/10/27 08:07:48;;;;;;;28.35;14.50;;;10.80;99.90;;;;;;5051305;28;20474;-63
2023/10/27 08:10:14;;;;;;;25.45;14.05;;;10.80;99.90;;;;;;5051830;28;20478;-63
2023/10/27 08:12:40;;;;;;;28.67;14.27;;;10.80;99.90;;;;;;5051962;28;20534;-62
2023/10/27 08:15:06;;;;;;;27.23;15.07;;;10.80;99.90;;;;;;5047006;28;20029;-63
2023/10/27 08:17:36;;;;;;;26.70;13.18;;;10.80;99.90;;;;;;5050489;28;20116;-63
2023/10/27 08:20:03;;;;;;;26.25;13.40;;;10.80;99.90;;;;;;5051193;28;20052;-63
2023/10/27 08:22:28;;;;;;;28.02;14.48;;;10.80;99.90;;;;;;5051098;28;20024;-62
2023/10/27 08:24:55;;;;;;;28.15;14.43;;;10.80;99.90;;;;;;5051013;28;20021;-62
2023/10/27 08:27:22;;;;;;;28.58;14.18;;;10.80;99.90;;;;;;5051066;28;20033;-62
2023/10/27 08:29:47;;;;;;;25.70;14.10;;;10.80;99.90;;;;;;5051451;28;20015;-62
2023/10/27 08:32:14;;;;;;;27.63;13.32;;;10.80;99.90;;;;;;5051349;28;20386;-63
2023/10/27 08:34:39;;;;;;;22.13;12.15;;;10.80;99.90;;;;;;5051229;28;20021;-62
2023/10/27 08:37:05;;;;;;;25.35;13.10;;;10.80;99.90;;;;;;5050707;28;20025;-63
2023/10/27 08:39:34;;;;;;;25.35;13.05;;;10.80;99.90;;;;;;5049767;28;20473;-63
2023/10/27 08:42:00;;;;;;;27.85;13.68;;;10.80;99.90;;;;;;5051226;28;20025;-62
2023/10/27 08:44:27;;;;;;;28.83;13.43;;;10.80;99.90;;;;;;5050907;28;20033;-62
2023/10/27 08:46:53;;;;;;;26.08;12.80;;;10.80;99.90;;;;;;5050630;28;20553;-62
2023/10/27 08:49:19;;;;;;;25.80;13.38;;;10.80;99.90;;;;;;5049872;28;20086;-63
2023/10/27 08:51:44;;;;;;;25.35;12.10;;;10.80;99.90;;;;;;5050767;28;20017;-63
2023/10/27 08:54:10;;;;;;;25.73;13.52;;;10.80;99.90;;;;;;5049975;28;20248;-63
2023/10/27 08:56:37;;;;;;;29.48;13.32;;;10.70;99.90;;;;;;5050526;28;20033;-63
2023/10/27 08:59:06;;;;;;;26.23;13.30;;;10.70;99.90;;;;;;5050831;28;20563;-63
2023/10/27 09:01:32;;;;;;;27.10;12.77;;;10.70;99.90;;;;;;5050722;28;20113;-63
2023/10/27 09:04:11;;;;;;;24.70;12.65;;;10.70;99.90;;;;;;5050417;28;20103;-63
2023/10/27 09:06:38;;;;;;;27.45;13.73;;;10.70;99.90;;;;;;5050255;28;20474;-63
2023/10/27 09:09:05;;;;;;;24.52;12.45;;;10.80;99.90;;;;;;5049384;28;20056;-62
2023/10/27 09:11:47;;;;;;;23.23;12.15;;;10.80;99.90;;;;;;5050694;28;20013;-63
2023/10/27 09:14:19;;;;;;;24.00;13.00;;;10.80;99.90;;;;;;5050450;28;20127;-62
2023/10/27 09:16:46;;;;;;;27.05;13.68;;;10.80;99.90;;;;;;5049958;28;20029;-63
2023/10/27 09:19:25;;;;;;;25.98;13.00;;;10.80;99.90;;;;;;5050485;28;20029;-62
2023/10/27 09:21:53;;;;;;;24.63;12.52;;;10.80;99.90;;;;;;5050301;28;20104;-63
2023/10/27 09:24:24;;;;;;;25.15;13.05;;;10.90;99.90;;;;;;5049103;28;20033;-62
2023/10/27 09:26:50;;;;;;;22.38;12.07;;;10.90;99.90;;;;;;5050191;28;20076;-62
2023/10/27 09:29:16;;;;;;;25.02;13.60;;;10.90;99.90;;;;;;5050450;28;20390;-62
2023/10/27 09:31:43;;;;;;;23.67;13.30;;;11.00;99.90;;;;;;5050377;28;20027;-62
2023/10/27 09:34:29;;;;;;;24.48;12.10;;;11.10;99.90;;;;;;5050354;28;20024;-62
2023/10/27 09:36:58;;;;;;;29.70;14.93;;;11.10;99.90;;;;;;5049994;28;20111;-62
2023/10/27 09:39:24;;;;;;;25.13;13.70;;;11.20;99.90;;;;;;5050123;28;20036;-62
2023/10/27 09:42:03;;;;;;;27.60;13.82;;;11.30;99.90;;;;;;5050480;28;20047;-61
2023/10/27 09:44:37;;;;;;;27.48;13.73;;;11.30;99.90;;;;;;5050204;28;20107;-63
2023/10/27 09:47:10;;;;;;;30.88;14.77;;;11.40;99.90;;;;;;5048373;28;20024;-63
2023/10/27 09:49:39;;;;;;;28.25;13.40;;;11.40;99.90;;;;;;5049699;28;20032;-63
2023/10/27 09:52:09;;;;;;;25.42;12.55;;;11.50;99.90;;;;;;5049795;28;20467;-63
2023/10/27 09:54:35;;;;;;;;;;;11.50;99.90;;;;;;5050040;28;20513;-61
2023/10/27 09:57:01;;;;;;;26.73;13.38;;;11.60;99.90;;;;;;5049526;28;19936;-63
2023/10/27 09:59:28;;;;;;;28.35;13.77;;;11.60;99.90;;;;;;5048480;28;20402;-62
2023/10/27 10:01:55;;;;;;;30.27;15.25;;;11.50;99.90;;;;;;5049504;28;20390;-62
2023/10/27 10:04:52;;;;;;;32.55;15.90;;;11.50;99.90;;;;;;5047953;28;20040;-61
2023/10/27 10:07:38;;;;;;;30.88;17.45;;;11.50;99.90;;;;;;5049328;28;20027;-62
2023/10/27 10:10:33;;;;;;;29.27;16.10;;;11.40;99.90;;;;;;5049566;28;20104;-62
2023/10/27 10:13:06;;;;;;;31.10;15.32;;;11.40;99.90;;;;;;5049200;28;20021;-62
2023/10/27 10:15:37;;;;;;;26.45;15.05;;;11.40;99.90;;;;;;5047973;28;20029;-62
2023/10/27 10:18:07;;;;;;;33.40;17.33;;;11.40;99.90;;;;;;5047917;28;20028;-61
2023/10/27 10:20:45;;;;;;;44.90;25.35;;;11.40;99.90;;;;;;5047948;28;20123;-61
2023/10/27 10:23:11;;;;;;;35.28;18.67;;;11.50;99.90;;;;;;5049148;28;20032;-62
2023/10/27 10:25:51;;;;;;;29.95;16.98;;;11.50;99.90;;;;;;5048807;28;20082;-61
2023/10/27 10:28:16;;;;;;;29.95;16.42;;;11.50;99.90;;;;;;5047878;28;20028;-62
2023/10/27 10:31:13;;;;;;;29.20;16.77;;;11.50;99.90;;;;;;5049375;28;20260;-62
2023/10/27 10:33:40;;;;;;;34.22;18.67;;;11.60;99.90;;;;;;5048994;28;20013;-62
2023/10/27 10:36:15;;;;;;;33.88;18.60;;;11.60;99.90;;;;;;5049154;28;20044;-63
2023/10/27 10:38:43;;;;;;;35.40;19.15;;;11.60;99.90;;;;;;5047332;28;20453;-62
2023/10/27 10:41:09;;;;;;;30.13;17.08;;;11.60;99.90;;;;;;5047651;28;20490;-63
2023/10/27 10:43:38;;;;;;;28.17;16.67;;;11.60;99.90;;;;;;5047505;28;20484;-63
2023/10/27 10:46:11;;;;;;;30.80;17.08;;;11.70;99.90;;;;;;5039846;28;20048;-63
2023/10/27 10:48:42;;;;;;;26.83;15.90;;;11.70;99.90;;;;;;5042098;28;20013;-63
2023/10/27 10:51:18;;;;;;;27.23;17.38;;;11.70;99.90;;;;;;5039578;28;20079;-63
2023/10/27 10:53:50;;;;;;;25.20;15.70;;;11.70;99.90;;;;;;5040739;28;20024;-63
2023/10/27 10:56:16;;;;;;;30.02;17.67;;;11.70;99.90;;;;;;5039935;28;20083;-63
2023/10/27 10:58:42;;;;;;;29.60;16.08;;;11.70;99.90;;;;;;5042271;28;20029;-63
2023/10/27 11:01:18;;;;;;;31.73;17.38;;;11.70;99.90;;;;;;5040866;28;20382;-63
2023/10/27 11:03:54;;;;;;;32.17;18.05;;;11.70;99.90;;;;;;5040814;28;20013;-63
2023/10/27 11:06:21;;;;;;;36.83;19.27;;;11.70;99.90;;;;;;5040239;28;20013;-64
2023/10/27 11:08:47;;;;;;;31.75;18.08;;;11.70;99.90;;;;;;5042515;28;20029;-64
2023/10/27 11:11:14;;;;;;;30.70;17.05;;;11.70;99.90;;;;;;5038656;28;20417;-64
2023/10/27 11:13:47;;;;;;;38.38;19.77;;;11.70;99.90;;;;;;5046300;28;20021;-64
2023/10/27 11:16:23;;;;;;;34.08;15.77;;;11.70;99.90;;;;;;5039927;28;20513;-63
2023/10/27 11:18:59;;;;;;;30.17;17.70;;;11.70;99.90;;;;;;5040382;28;20434;-62
2023/10/27 11:21:29;;;;;;;28.65;16.48;;;11.80;99.90;;;;;;5041987;28;20017;-63
2023/10/27 11:23:55;;;;;;;31.27;17.27;;;11.90;99.90;;;;;;5041549;28;20113;-63
2023/10/27 11:26:23;;;;;;;31.38;16.55;;;11.90;99.90;;;;;;5042706;28;20275;-62
2023/10/27 11:28:49;;;;;;;33.25;18.42;;;11.90;99.90;;;;;;5042136;28;20030;-62
2023/10/27 11:31:26;;;;;;;32.20;17.17;;;11.90;99.90;;;;;;5041798;28;20045;-63
2023/10/27 11:34:06;;;;;;;31.38;17.98;;;12.00;99.90;;;;;;5041735;28;20021;-62
2023/10/27 11:36:38;;;;;;;32.72;19.13;;;12.00;99.90;;;;;;5041158;28;20021;-62
2023/10/27 11:39:21;;;;;;;31.05;17.65;;;12.10;99.90;;;;;;5038660;28;20030;-62
2023/10/27 11:41:48;;;;;;;31.00;16.95;;;12.10;99.90;;;;;;5039545;28;20397;-62
2023/10/27 11:44:14;;;;;;;30.55;17.38;;;12.10;99.90;;;;;;5038487;28;20029;-62
2023/10/27 11:46:51;;;;;;;23.08;14.15;;;12.00;99.90;;;;;;5041282;28;20474;-62
2023/10/27 11:49:17;;;;;;;28.30;16.02;;;12.00;99.90;;;;;;5040234;28;20029;-62
2023/10/27 11:51:44;;;;;;;29.60;15.90;;;12.10;99.90;;;;;;5042263;28;20033;-62
2023/10/27 11:54:09;;;;;;;24.02;14.63;;;12.10;99.90;;;;;;5041285;28;20045;-62
2023/10/27 11:56:35;;;;;;;24.63;13.35;;;12.10;99.90;;;;;;5037391;28;20060;-62
2023/10/27 11:59:00;;;;;;;24.30;14.65;;;12.10;99.90;;;;;;5039162;28;20033;-62
2023/10/27 12:01:26;;;;;;;27.35;14.70;;;12.10;99.90;;;;;;5044645;28;20465;-63
2023/10/27 12:03:51;;;;;;;21.70;13.73;;;12.10;99.90;;;;;;5041874;28;20018;-63
2023/10/27 12:06:17;;;;;;;24.40;14.82;;;12.10;99.90;;;;;;5046938;28;20433;-63
2023/10/27 12:08:42;;;;;;;22.48;13.63;;;12.10;99.90;;;;;;5050106;28;20249;-63
2023/10/27 12:11:08;;;;;;;21.42;12.90;;;12.10;99.90;;;;;;5051729;28;20108;-64
2023/10/27 12:13:34;;;;;;;24.75;15.15;;;12.00;99.90;;;;;;5051773;28;20097;-63
2023/10/27 12:16:00;;;;;;;28.90;15.77;;;11.90;99.90;;;;;;5051586;28;20459;-63
2023/10/27 12:18:25;;;;;;;22.55;14.15;;;11.90;99.90;;;;;;5050199;28;20490;-64
2023/10/27 12:20:51;;;;;;;23.30;13.65;;;11.80;99.90;;;;;;5044630;28;20510;-64
2023/10/27 12:23:18;;;;;;;20.67;12.57;;;11.90;99.90;;;;;;5040181;28;20025;-64
2023/10/27 12:25:43;;;;;;;23.58;14.35;;;11.80;99.90;;;;;;5050352;28;20021;-64
2023/10/27 12:28:09;;;;;;;25.63;14.90;;;11.80;99.90;;;;;;5050433;28;20475;-64